Time;durP1;ratioP1;P1;durP2;ratioP2;P2;SDS_P1;SDS_P2;PMS_P1;PMS_P2;Temp;Humidity;BMP_temperature;BMP_pressure;BME280_temperature;BME280_humidity;BME280_pressure;Samples;Min_cycle;Max_cycle;Signal;HPM_P1;HPM_P2
2021/06/30 00:01:25;;;;;;;;;4.00;4.00;;;;;24.23;51.46;100925.19;5058553;28;63259;-66
2021/06/30 00:03:51;;;;;;;;;6.00;5.00;;;;;24.22;51.08;100912.81;5058904;28;45764;-67
2021/06/30 00:06:18;;;;;;;;;3.50;3.25;;;;;24.22;51.12;100919.03;5059631;28;45671;-67
2021/06/30 00:08:44;;;;;;;;;4.75;4.75;;;;;24.21;51.42;100911.97;5059634;28;45367;-67
2021/06/30 00:11:09;;;;;;;;;5.00;4.00;;;;;24.21;51.57;100916.41;5058998;28;46026;-67
2021/06/30 00:13:35;;;;;;;;;5.75;4.50;;;;;24.20;50.98;100919.97;5057419;28;45573;-67
2021/06/30 00:16:00;;;;;;;;;5.00;4.00;;;;;24.20;51.51;100912.88;5059093;28;50082;-66
2021/06/30 00:18:26;;;;;;;;;4.75;4.75;;;;;24.20;51.60;100912.88;5058976;28;50499;-67
2021/06/30 00:20:51;;;;;;;;;5.00;5.00;;;;;24.19;51.21;100911.16;5058708;28;45897;-67
2021/06/30 00:23:17;;;;;;;;;5.25;4.00;;;;;24.20;51.43;100912.00;5058721;28;45465;-67
2021/06/30 00:25:42;;;;;;;;;4.00;4.00;;;;;24.19;51.64;100904.94;5058868;28;45402;-67
2021/06/30 00:28:08;;;;;;;;;3.00;2.00;;;;;24.18;51.73;100912.06;5059067;28;45357;-67
2021/06/30 00:30:34;;;;;;;;;3.50;3.50;;;;;24.18;51.07;100911.16;5059018;28;46240;-67
2021/06/30 00:32:59;;;;;;;;;5.50;3.00;;;;;24.17;51.32;100912.13;5058325;28;53514;-67
2021/06/30 00:35:24;;;;;;;;;4.00;4.00;;;;;24.18;51.05;100911.16;5058849;28;45483;-67
2021/06/30 00:37:50;;;;;;;;;4.00;4.00;;;;;24.16;51.20;100903.25;5058940;28;45497;-66
2021/06/30 00:40:15;;;;;;;;;3.00;3.00;;;;;24.16;51.27;100907.72;5058587;28;47132;-67
2021/06/30 00:42:41;;;;;;;;;4.25;4.00;;;;;24.16;51.02;100911.22;5058186;28;54236;-67
2021/06/30 00:45:07;;;;;;;;;3.25;3.25;;;;;24.13;51.18;100906.00;5058348;28;48774;-67
2021/06/30 00:47:33;;;;;;;;;3.50;3.00;;;;;24.14;51.40;100909.53;5059130;28;45312;-67
2021/06/30 00:49:58;;;;;;;;;4.00;3.50;;;;;24.15;51.39;100905.97;5058776;28;45418;-67
2021/06/30 00:52:24;;;;;;;;;4.00;4.00;;;;;24.14;51.21;100909.53;5058319;28;45363;-66
2021/06/30 00:54:49;;;;;;;;;3.25;3.25;;;;;24.14;51.12;100912.19;5058464;28;45209;-66
2021/06/30 00:57:15;;;;;;;;;3.00;2.75;;;;;24.12;51.22;100906.06;5058729;28;45216;-66
2021/06/30 00:59:40;;;;;;;;;3.00;3.00;;;;;24.13;51.44;100907.81;5057236;28;45875;-66
2021/06/30 01:02:06;;;;;;;;;3.00;3.00;;;;;24.09;50.92;100916.78;5056906;28;53240;-66
2021/06/30 01:04:31;;;;;;;;;3.25;3.25;;;;;24.12;51.02;100911.38;5058289;28;45367;-66
2021/06/30 01:06:57;;;;;;;;;4.50;3.00;;;;;24.12;51.01;100912.22;5057574;28;45422;-67
2021/06/30 01:09:22;;;;;;;;;3.75;3.75;;;;;24.11;51.13;100909.63;5058372;28;46318;-66
2021/06/30 01:11:48;;;;;;;;;2.75;2.75;;;;;24.12;51.01;100914.03;5057894;28;56118;-66
2021/06/30 01:14:34;;;;;;;;;3.00;3.00;;;;;24.10;51.48;100911.41;5058054;28;45288;-67
2021/06/30 01:17:01;;;;;;;;;3.00;3.00;;;;;24.11;51.60;100910.50;5057832;28;45641;-66
2021/06/30 01:19:27;;;;;;;;;4.00;3.00;;;;;24.10;51.57;100908.75;5058356;28;45336;-66
2021/06/30 01:21:53;;;;;;;;;3.50;3.25;;;;;24.10;51.25;100902.56;5058179;28;45450;-66
2021/06/30 01:24:18;;;;;;;;;3.50;3.25;;;;;24.10;51.57;100902.56;5051342;28;45726;-66
2021/06/30 01:26:44;;;;;;;;;5.50;4.00;;;;;24.09;51.38;100903.50;5052206;28;45404;-66
2021/06/30 01:29:10;;;;;;;;;2.00;2.00;;;;;24.08;51.14;100912.38;5056158;28;45611;-66
2021/06/30 01:31:35;;;;;;;;;3.00;3.00;;;;;24.07;51.66;100900.00;5058237;28;45331;-66
2021/06/30 01:34:00;;;;;;;;;4.00;3.00;;;;;24.08;51.32;100901.75;5057687;28;51261;-67
2021/06/30 01:36:26;;;;;;;;;3.75;3.75;;;;;24.07;51.13;100900.00;5056300;28;49631;-67
2021/06/30 01:38:51;;;;;;;;;2.25;2.25;;;;;24.07;51.62;100897.34;5057879;28;45396;-67
2021/06/30 01:41:17;;;;;;;;;4.25;3.25;;;;;24.05;51.54;100898.25;5057411;28;53299;-67
2021/06/30 01:43:42;;;;;;;;;2.25;2.25;;;;;24.04;51.38;100900.97;5057848;28;45844;-67
2021/06/30 01:46:07;;;;;;;;;4.00;4.00;;;;;24.05;51.31;100900.91;5056788;28;45569;-67
2021/06/30 01:48:33;;;;;;;;;4.00;2.00;;;;;24.01;51.33;100899.25;5057691;28;45676;-66
2021/06/30 01:50:58;;;;;;;;;4.25;4.25;;;;;24.03;51.48;100907.22;5056919;28;55619;-66
2021/06/30 01:53:24;;;;;;;;;3.50;2.25;;;;;24.00;51.75;100897.53;5057823;28;45314;-66
2021/06/30 01:55:49;;;;;;;;;3.00;3.00;;;;;24.02;51.65;100908.97;5057767;28;45356;-66
2021/06/30 01:58:19;;;;;;;;;2.25;2.25;;;;;24.01;51.45;100909.88;5056988;28;46431;-66
2021/06/30 02:00:47;;;;;;;;;2.50;2.50;;;;;23.99;51.41;100914.38;5055954;28;45535;-66
2021/06/30 02:03:13;;;;;;;;;4.00;2.00;;;;;23.98;51.43;100904.66;5057721;28;45419;-67
2021/06/30 02:05:39;;;;;;;;;2.75;2.75;;;;;23.98;51.66;100911.78;5023124;28;45323;-67
2021/06/30 02:08:05;;;;;;;;;1.50;1.50;;;;;23.96;51.18;100909.16;5057017;28;47189;-66
2021/06/30 02:10:30;;;;;;;;;5.00;3.00;;;;;23.96;51.15;100914.47;5057491;28;45404;-66
2021/06/30 02:12:56;;;;;;;;;3.50;3.50;;;;;23.96;51.11;100910.94;5057513;28;45593;-67
2021/06/30 02:15:24;;;;;;;;;3.50;3.00;;;;;23.95;51.77;100914.53;5057674;28;45458;-67
2021/06/30 02:17:50;;;;;;;;;4.00;3.00;;;;;23.95;51.26;100915.38;5056950;28;45583;-67
2021/06/30 02:20:15;;;;;;;;;3.00;2.50;;;;;23.92;51.08;100910.16;5057566;28;45301;-67
2021/06/30 02:22:41;;;;;;;;;5.25;3.50;;;;;23.92;51.92;100914.59;5056261;28;45398;-66
2021/06/30 02:25:07;;;;;;;;;4.00;4.00;;;;;23.92;51.63;100915.47;5057591;28;45378;-67
2021/06/30 02:27:33;;;;;;;;;2.00;2.00;;;;;23.91;51.37;100921.69;5057044;28;46058;-67
2021/06/30 02:29:58;;;;;;;;;3.50;3.00;;;;;23.91;51.14;100920.84;5056278;28;59216;-67
2021/06/30 02:32:23;;;;;;;;;3.75;3.25;;;;;23.91;51.74;100923.50;5057101;28;45556;-67
2021/06/30 02:34:49;;;;;;;;;7.00;4.00;;;;;23.90;51.70;100924.41;5057532;28;45579;-67
2021/06/30 02:37:14;;;;;;;;;4.75;3.50;;;;;23.87;51.29;100918.22;5056909;28;46035;-67
2021/06/30 02:39:40;;;;;;;;;3.00;3.00;;;;;23.90;51.83;100921.75;5056653;28;45280;-67
2021/06/30 02:42:05;;;;;;;;;4.50;4.50;;;;;23.90;51.20;100927.91;5056542;28;51975;-67
2021/06/30 02:44:31;;;;;;;;;4.00;3.75;;;;;23.87;51.34;100917.34;5057090;28;45220;-67
2021/06/30 02:46:56;;;;;;;;;4.50;4.00;;;;;23.88;51.16;100927.09;5055246;28;61351;-67
2021/06/30 02:49:21;;;;;;;;;6.00;3.50;;;;;23.87;51.88;100922.66;5055478;28;45441;-67
2021/06/30 02:51:47;;;;;;;;;3.00;2.75;;;;;23.87;51.53;100926.19;5056214;28;56844;-67
2021/06/30 02:54:12;;;;;;;;;4.00;4.00;;;;;23.87;51.62;100925.31;5056759;28;46960;-67
2021/06/30 02:56:38;;;;;;;;;4.00;3.25;;;;;23.86;51.52;100928.88;5058809;28;45507;-67
2021/06/30 02:59:03;;;;;;;;;3.75;3.25;;;;;23.86;51.26;100928.88;5059886;28;45444;-66
2021/06/30 03:01:29;;;;;;;;;4.00;4.00;;;;;23.85;51.39;100925.38;5059539;28;45729;-66
2021/06/30 03:03:54;;;;;;;;;4.25;3.00;;;;;23.84;51.31;100928.94;5060735;28;45519;-66
2021/06/30 03:06:19;;;;;;;;;4.75;4.00;;;;;23.85;51.48;100940.41;5059855;28;53310;-66
2021/06/30 03:08:45;;;;;;;;;3.50;3.50;;;;;23.83;51.21;100929.84;5059939;28;52052;-66
2021/06/30 03:11:10;;;;;;;;;5.00;3.25;;;;;23.83;51.55;100931.63;5060547;28;45494;-67
2021/06/30 03:13:36;;;;;;;;;6.50;4.25;;;;;23.82;51.04;100933.44;5060247;28;45468;-67
2021/06/30 03:16:01;;;;;;;;;4.00;3.50;;;;;23.81;50.97;100928.13;5060258;28;45952;-67
2021/06/30 03:18:26;;;;;;;;;6.50;3.25;;;;;23.80;51.42;100932.56;5059757;28;45276;-67
2021/06/30 03:20:52;;;;;;;;;4.00;4.00;;;;;23.78;51.03;100936.19;5059992;28;45579;-67
2021/06/30 03:23:17;;;;;;;;;4.00;4.00;;;;;23.78;51.57;100937.06;5060100;28;45304;-67
2021/06/30 03:25:43;;;;;;;;;6.75;4.25;;;;;23.79;51.16;100936.13;5059688;28;56460;-67
2021/06/30 03:28:08;;;;;;;;;3.00;3.00;;;;;23.79;50.96;100935.28;5059871;28;49696;-66
2021/06/30 03:30:34;;;;;;;;;4.25;4.25;;;;;23.78;51.18;100944.16;5059787;28;45352;-67
2021/06/30 03:33:01;;;;;;;;;4.50;4.50;;;;;23.77;51.18;100937.09;5059644;28;45715;-67
2021/06/30 03:35:26;;;;;;;;;5.25;5.00;;;;;23.77;51.19;100937.09;5059887;28;47143;-66
2021/06/30 03:37:51;;;;;;;;;3.00;3.00;;;;;23.77;51.37;100937.09;5059510;28;55659;-66
2021/06/30 03:40:17;;;;;;;;;5.25;4.00;;;;;23.77;51.18;100937.97;5059289;28;45579;-66
2021/06/30 03:42:42;;;;;;;;;6.25;5.00;;;;;23.77;50.88;100940.63;5060046;28;45396;-66
2021/06/30 03:45:08;;;;;;;;;5.00;5.00;;;;;23.76;51.22;100938.03;5059572;28;46222;-67
2021/06/30 03:47:34;;;;;;;;;6.00;4.00;;;;;23.75;51.22;100945.09;5059690;28;45229;-67
2021/06/30 03:49:59;;;;;;;;;5.25;4.00;;;;;23.75;51.06;100938.94;5059458;28;45434;-66
2021/06/30 03:52:25;;;;;;;;;5.00;3.00;;;;;23.75;51.12;100952.19;5059548;28;45401;-66
2021/06/30 03:54:50;;;;;;;;;6.25;5.00;;;;;;;;5059524;28;46940;-66
2021/06/30 03:57:16;;;;;;;;;5.00;5.00;;;;;23.74;51.31;100947.78;5059341;28;45491;-67
2021/06/30 03:59:41;;;;;;;;;4.75;4.75;;;;;23.74;51.07;100945.16;5059340;28;45251;-67
2021/06/30 04:02:06;;;;;;;;;4.50;4.50;;;;;;;;5059290;28;45506;-67
2021/06/30 04:04:32;;;;;;;;;5.00;3.33;;;;;;;;5058993;28;56761;-66
2021/06/30 04:06:57;;;;;;;;;4.50;4.50;;;;;23.71;50.88;100947.00;5059317;28;45315;-67
2021/06/30 04:09:23;;;;;;;;;6.00;5.75;;;;;23.70;51.23;100942.59;5058572;28;45448;-67
2021/06/30 04:11:48;;;;;;;;;5.00;5.00;;;;;23.71;51.12;100949.63;5059227;28;45341;-67
2021/06/30 04:14:14;;;;;;;;;7.00;5.00;;;;;23.69;51.15;100948.78;5058999;28;46127;-67
2021/06/30 04:16:39;;;;;;;;;6.50;6.25;;;;;23.68;51.40;100944.38;5059151;28;45466;-67
2021/06/30 04:19:05;;;;;;;;;6.25;4.25;;;;;23.68;50.85;100949.69;5059245;28;45357;-67
2021/06/30 04:21:30;;;;;;;;;6.00;3.00;;;;;23.68;51.10;100940.88;5058856;28;45520;-67
2021/06/30 04:23:55;;;;;;;;;6.25;6.25;;;;;23.68;50.98;100952.34;5058643;28;58640;-67
2021/06/30 04:26:21;;;;;;;;;6.25;4.00;;;;;23.67;50.78;100947.97;5059024;28;47381;-67
2021/06/30 04:28:47;;;;;;;;;6.00;5.00;;;;;23.66;50.82;100948.88;5059207;28;45577;-67
2021/06/30 04:31:13;;;;;;;;;5.50;5.00;;;;;23.65;50.89;100943.63;5058779;28;45553;-67
2021/06/30 04:33:38;;;;;;;;;4.75;4.75;;;;;23.64;51.16;100942.72;5058590;28;45205;-67
2021/06/30 04:36:03;;;;;;;;;5.75;5.75;;;;;23.65;50.89;100955.09;5058679;28;53163;-67
2021/06/30 04:38:30;;;;;;;;;6.75;5.00;;;;;23.66;51.11;100956.00;5058969;28;45487;-67
2021/06/30 04:40:55;;;;;;;;;3.75;3.75;;;;;23.64;50.87;100956.00;5058502;28;45244;-66
2021/06/30 04:43:20;;;;;;;;;5.00;4.00;;;;;23.64;51.08;100953.34;5057652;28;46901;-66
2021/06/30 04:45:46;;;;;;;;;4.50;4.50;;;;;23.63;50.92;100956.94;5058410;28;45380;-67
2021/06/30 04:48:12;;;;;;;;;5.00;5.00;;;;;23.64;50.94;100952.50;5058913;28;45304;-67
2021/06/30 04:50:37;;;;;;;;;5.00;5.00;;;;;23.64;50.96;100955.16;5058615;28;45302;-67
2021/06/30 04:53:03;;;;;;;;;7.25;5.25;;;;;23.62;50.95;100955.19;5057885;28;46128;-67
2021/06/30 04:55:28;;;;;;;;;6.00;4.75;;;;;23.62;51.06;100947.22;5057316;28;45503;-67
2021/06/30 04:57:53;;;;;;;;;3.25;3.25;;;;;23.63;51.12;100956.03;5058636;28;49266;-67
2021/06/30 05:00:19;;;;;;;;;4.75;4.00;;;;;23.62;51.02;100952.53;5058596;28;45410;-67
2021/06/30 05:02:44;;;;;;;;;6.00;4.00;;;;;23.62;51.42;100954.31;5057890;28;45596;-66
2021/06/30 05:05:10;;;;;;;;;3.00;3.00;;;;;23.62;50.96;100957.84;5058072;28;45416;-67
2021/06/30 05:07:35;;;;;;;;;7.75;5.00;;;;;23.62;50.82;100959.63;5057729;28;45411;-67
2021/06/30 05:10:01;;;;;;;;;6.50;5.00;;;;;23.60;51.01;100967.59;5058227;28;45652;-67
2021/06/30 05:12:26;;;;;;;;;7.75;5.00;;;;;23.60;51.07;100967.59;5056815;28;54822;-66
2021/06/30 05:14:51;;;;;;;;;6.00;6.00;;;;;23.60;51.41;100978.22;5057762;28;55416;-66
2021/06/30 05:17:17;;;;;;;;;6.00;4.00;;;;;23.59;50.80;100971.19;5057775;28;51867;-66
2021/06/30 05:19:42;;;;;;;;;5.75;5.75;;;;;23.60;50.80;100970.25;5057341;28;45393;-65
2021/06/30 05:22:08;;;;;;;;;5.00;4.25;;;;;23.59;50.85;100970.31;5056861;28;46190;-66
2021/06/30 05:24:33;;;;;;;;;5.25;5.25;;;;;23.58;50.83;100966.78;5057873;28;52947;-67
2021/06/30 05:26:59;;;;;;;;;5.00;5.00;;;;;23.57;50.69;100965.03;5058269;28;45183;-65
2021/06/30 05:29:24;;;;;;;;;5.00;4.00;;;;;23.57;50.65;100977.44;5057921;28;45229;-66
2021/06/30 05:31:50;;;;;;;;;5.50;4.25;;;;;23.55;51.00;100978.34;5057608;28;46547;-66
2021/06/30 05:34:15;;;;;;;;;11.00;6.25;;;;;23.55;50.79;100980.16;5055802;28;57537;-65
2021/06/30 05:36:47;;;;;;;;;5.25;4.00;;;;;23.53;51.17;100979.31;5057412;28;55075;-65
2021/06/30 05:39:14;;;;;;;;;3.25;3.00;;;;;23.53;50.87;100987.25;5058085;28;45167;-65
2021/06/30 05:41:40;;;;;;;;;4.50;4.50;;;;;23.54;50.79;100987.22;5057222;28;46399;-65
2021/06/30 05:44:07;;;;;;;;;7.50;6.00;;;;;23.57;51.21;100982.75;5056336;28;54005;-64
2021/06/30 05:46:33;;;;;;;;;6.00;5.50;;;;;23.57;51.43;100988.91;5057687;28;45340;-65
2021/06/30 05:48:58;;;;;;;;;7.25;4.75;;;;;23.58;50.78;100985.38;5057452;28;45364;-63
2021/06/30 05:51:23;;;;;;;;;5.25;5.25;;;;;23.58;51.24;100985.38;5056933;28;46158;-63
2021/06/30 05:53:49;;;;;;;;;7.25;4.00;;;;;23.58;51.10;100988.03;5056554;28;55893;-62
2021/06/30 05:56:14;;;;;;;;;5.00;4.25;;;;;23.60;51.04;100991.50;5047373;28;45874;-68
2021/06/30 05:58:40;;;;;;;;;11.75;4.00;;;;;23.61;50.76;100990.59;5056429;28;45498;-69
2021/06/30 06:01:06;;;;;;;;;8.00;4.25;;;;;23.62;51.34;100995.00;5062599;27;45998;-70
2021/06/30 06:03:31;;;;;;;;;5.00;4.00;;;;;23.63;51.11;100991.44;5057068;28;45337;-69
2021/06/30 06:05:57;;;;;;;;;5.75;3.75;;;;;23.64;50.87;100989.63;5057006;28;51180;-69
2021/06/30 06:08:22;;;;;;;;;7.50;6.00;;;;;23.62;49.88;100995.00;5057762;28;45223;-69
2021/06/30 06:10:47;;;;;;;;;4.00;4.00;;;;;23.55;50.78;101002.22;5056873;28;53325;-69
2021/06/30 06:13:13;;;;;;;;;5.00;5.00;;;;;23.55;50.90;101004.03;5056908;28;54002;-69
2021/06/30 06:15:38;;;;;;;;;5.75;4.75;;;;;23.57;51.28;101002.19;5057158;28;45469;-69
2021/06/30 06:18:07;;;;;;;;;5.00;5.00;;;;;23.59;51.22;101003.03;5057424;28;45665;-73
2021/06/30 06:20:32;;;;;;;;;5.00;5.00;;;;;23.59;51.29;101008.34;5057093;28;47161;-69
2021/06/30 06:22:58;;;;;;;;;6.25;3.00;;;;;23.61;51.40;101009.16;5057416;28;45374;-69
2021/06/30 06:25:23;;;;;;;;;5.00;5.00;;;;;23.61;50.32;101017.13;5057327;28;45367;-69
2021/06/30 06:27:48;;;;;;;;;3.25;3.25;;;;;23.52;50.74;101007.63;5057098;28;46442;-71
2021/06/30 06:30:14;;;;;;;;;5.00;5.00;;;;;23.51;51.11;101020.94;5057021;28;45879;-76
2021/06/30 06:32:40;;;;;;;;;3.25;3.00;;;;;23.49;51.19;101018.31;5060671;28;45349;-66
2021/06/30 06:35:06;;;;;;;;;4.00;3.25;;;;;23.51;51.49;101020.94;5060909;28;45363;-68
2021/06/30 06:37:31;;;;;;;;;4.50;4.00;;;;;23.52;51.42;101022.66;5059743;28;45294;-68
2021/06/30 06:39:57;;;;;;;;;5.50;3.50;;;;;23.53;51.67;101025.28;5060358;28;46212;-71
2021/06/30 06:42:23;;;;;;;;;4.50;4.50;;;;;23.54;51.40;101029.66;5059341;28;45468;-74
2021/06/30 06:44:48;;;;;;;;;4.75;3.75;;;;;23.56;51.78;101026.97;5060428;28;46929;-69
2021/06/30 06:47:13;;;;;;;;;4.00;4.00;;;;;23.57;52.02;101025.22;5057418;28;45501;-74
2021/06/30 06:49:39;;;;;;;;;4.00;4.00;;;;;23.56;52.11;101026.97;5059634;28;47089;-67
2021/06/30 06:52:04;;;;;;;;;7.00;4.00;;;;;23.57;51.30;101030.53;5059212;28;45373;-64
2021/06/30 06:54:30;;;;;;;;;5.75;4.00;;;;;23.58;52.02;101035.78;5070994;28;45608;-67
2021/06/30 06:56:55;;;;;;;;;4.00;4.00;;;;;23.58;51.97;101035.78;5060007;28;45401;-68
2021/06/30 06:59:21;;;;;;;;;5.75;3.00;;;;;23.59;52.08;101034.88;5067957;28;59293;-72
2021/06/30 07:01:46;;;;;;;;;7.00;4.00;;;;;23.59;51.81;101034.88;5065513;28;53492;-71
2021/06/30 07:04:11;;;;;;;;;6.00;4.00;;;;;23.57;52.03;101030.53;5059611;28;45380;-70
2021/06/30 07:06:37;;;;;;;;;4.25;4.00;;;;;23.56;51.92;101029.63;5059816;28;45685;-71
2021/06/30 07:09:03;;;;;;;;;6.00;4.25;;;;;23.57;51.81;101035.81;5059350;28;58461;-71
2021/06/30 07:11:28;;;;;;;;;4.50;3.75;;;;;23.57;52.10;101034.03;5059848;28;45498;-71
2021/06/30 07:13:53;;;;;;;;;3.50;3.50;;;;;23.58;51.80;101034.91;5059721;28;45536;-71
2021/06/30 07:16:19;;;;;;;;;5.50;5.00;;;;;23.57;52.31;101035.81;5059151;28;47503;-71
2021/06/30 07:18:44;;;;;;;;;4.75;4.75;;;;;23.58;52.03;101032.28;5059434;28;45919;-71
2021/06/30 07:21:10;;;;;;;;;5.75;3.25;;;;;23.57;52.31;101039.34;5057897;28;45473;-71
2021/06/30 07:23:36;;;;;;;;;4.50;4.00;;;;;23.57;51.96;101042.00;5053384;28;45436;-71
2021/06/30 07:26:01;;;;;;;;;3.75;3.25;;;;;23.57;52.13;101039.34;5059608;28;45498;-69
2021/06/30 07:28:27;;;;;;;;;7.00;3.75;;;;;23.56;51.99;101045.53;5048801;28;46358;-73
2021/06/30 07:30:52;;;;;;;;;2.25;1.00;;;;;23.55;52.08;101047.34;5049737;28;45406;-70
2021/06/30 07:33:18;;;;;;;;;6.50;4.00;;;;;23.55;52.25;101043.81;5044536;28;45545;-76
2021/06/30 07:35:43;;;;;;;;;4.00;3.25;;;;;23.54;52.11;101050.91;5058590;28;45450;-73
2021/06/30 07:38:09;;;;;;;;;5.25;5.25;;;;;23.53;52.41;101049.19;5059079;28;47239;-71
2021/06/30 07:40:35;;;;;;;;;4.00;3.25;;;;;23.54;52.14;101053.53;5053829;28;45322;-72
2021/06/30 07:43:01;;;;;;;;;4.25;4.00;;;;;23.54;51.83;101058.84;5052565;28;45344;-72
2021/06/30 07:45:26;;;;;;;;;4.00;4.00;;;;;23.54;52.28;101058.00;5043036;28;45386;-72
2021/06/30 07:47:52;;;;;;;;;3.00;3.00;;;;;23.53;51.88;101056.25;5057594;28;47724;-72
2021/06/30 07:50:17;;;;;;;;;4.00;4.00;;;;;23.54;51.58;101068.59;5079223;27;45608;-72
2021/06/30 07:52:45;;;;;;;;;6.00;4.00;;;;;23.52;51.95;101062.44;5062674;28;45518;-71
2021/06/30 07:55:10;;;;;;;;;6.25;4.25;;;;;23.52;51.98;101065.09;5059262;28;45422;-72
2021/06/30 07:57:36;;;;;;;;;4.00;3.75;;;;;23.51;52.15;101061.59;5058791;28;50645;-73
2021/06/30 08:00:03;;;;;;;;;4.75;4.00;;;;;23.51;51.89;101063.38;5059160;28;45384;-72
2021/06/30 08:02:28;;;;;;;;;6.00;5.00;;;;;23.50;52.19;101054.53;5058079;28;45363;-72
2021/06/30 08:04:54;;;;;;;;;3.50;3.50;;;;;23.52;52.03;101057.16;5059401;28;45448;-73
2021/06/30 08:07:21;;;;;;;;;6.25;5.00;;;;;23.50;52.33;101056.31;5058620;28;52612;-73
2021/06/30 08:09:46;;;;;;;;;4.00;4.00;;;;;23.52;51.94;101059.78;5058965;28;45499;-72
2021/06/30 08:12:11;;;;;;;;;4.50;4.00;;;;;23.51;51.89;101058.09;5057722;28;45397;-73
2021/06/30 08:14:37;;;;;;;;;6.00;6.00;;;;;23.51;51.91;101056.28;5059029;28;45478;-73
2021/06/30 08:17:03;;;;;;;;;7.75;5.00;;;;;23.49;51.96;101054.56;5058031;28;46257;-74
2021/06/30 08:19:28;;;;;;;;;3.50;3.50;;;;;23.50;52.28;101057.19;5058709;28;45456;-73
2021/06/30 08:21:53;;;;;;;;;5.75;3.75;;;;;23.51;51.89;101060.72;5058612;28;48799;-76
2021/06/30 08:24:19;;;;;;;;;5.00;5.00;;;;;23.51;52.00;101060.72;5067690;28;45415;-77
2021/06/30 08:26:45;;;;;;;;;6.25;5.25;;;;;23.49;51.96;101058.13;5079052;27;47134;-76
2021/06/30 08:29:10;;;;;;;;;4.25;4.25;;;;;23.47;51.84;101056.41;5078877;27;45485;-73
2021/06/30 08:31:36;;;;;;;;;5.25;5.25;;;;;23.46;51.90;101060.81;5077726;28;45519;-73
2021/06/30 08:34:04;;;;;;;;;5.25;3.00;;;;;23.45;51.98;101059.09;5065403;27;45501;-69
2021/06/30 08:36:29;;;;;;;;;5.00;4.25;;;;;23.49;51.92;101070.50;5076696;28;46138;-72
2021/06/30 08:38:55;;;;;;;;;5.00;4.25;;;;;23.45;51.57;101074.13;5067481;27;45422;-72
2021/06/30 08:41:21;;;;;;;;;5.50;4.00;;;;;23.43;51.31;101066.22;5070069;28;49974;-74
2021/06/30 08:43:46;;;;;;;;;5.50;3.75;;;;;23.44;51.57;101067.97;5058502;28;45531;-75
2021/06/30 08:46:16;;;;;;;;;5.75;4.00;;;;;23.44;51.85;101065.31;5057958;28;45647;-75
2021/06/30 08:48:41;;;;;;;;;5.00;4.25;;;;;23.46;52.07;101065.28;5058132;28;45318;-65
2021/06/30 08:51:07;;;;;;;;;8.50;5.25;;;;;23.45;52.08;101058.22;5057059;28;45476;-70
2021/06/30 08:53:33;;;;;;;;;5.00;5.00;;;;;23.49;51.92;101057.22;5043875;28;45507;-72
2021/06/30 08:55:58;;;;;;;;;6.00;5.00;;;;;23.49;51.82;101055.47;5056148;28;58118;-72
2021/06/30 08:58:25;;;;;;;;;6.50;6.00;;;;;23.48;51.02;101061.69;5056383;28;45333;-73
2021/06/30 09:00:50;;;;;;;;;6.75;5.00;;;;;23.43;52.27;101058.25;5056926;28;52394;-77
2021/06/30 09:03:17;;;;;;;;;4.00;4.00;;;;;23.45;52.20;101064.41;5055382;28;45454;-77
2021/06/30 09:08:21;;;;;;;;;4.75;4.75;;;;;23.47;52.85;101061.72;5057818;28;45289;-73
2021/06/30 09:10:47;;;;;;;;;7.00;5.00;;;;;23.46;52.25;101052.88;5075577;27;45399;-73
2021/06/30 09:13:23;;;;;;;;;7.00;6.00;;;;;23.50;52.85;101064.28;5078427;27;45550;-72
2021/06/30 09:15:58;;;;;;;;;4.50;3.50;;;;;23.52;52.97;101059.78;5077891;27;46151;-74
2021/06/30 09:18:33;;;;;;;;;4.00;4.00;;;;;23.52;52.96;101060.69;5077772;27;45186;-74
2021/06/30 09:21:28;;;;;;;;;6.00;4.75;;;;;23.54;53.35;101060.66;5077400;27;45467;-74
2021/06/30 09:24:19;;;;;;;;;6.00;4.50;;;;;23.51;53.18;101053.63;5078323;27;45665;-74
2021/06/30 09:26:49;;;;;;;;;5.75;5.50;;;;;23.56;53.43;101061.47;5077943;27;45461;-72
2021/06/30 09:29:15;;;;;;;;;8.00;6.00;;;;;23.55;52.92;101055.31;5073076;27;45314;-70
2021/06/30 09:31:51;;;;;;;;;6.00;4.00;;;;;23.59;53.58;101063.19;5062943;27;46112;-71
2021/06/30 09:34:26;;;;;;;;;5.25;4.25;;;;;23.54;53.80;101055.34;5057802;28;45433;-71
2021/06/30 09:37:08;;;;;;;;;8.00;5.00;;;;;23.60;52.90;101064.94;5056412;28;46655;-68
2021/06/30 09:39:38;;;;;;;;;6.00;5.00;;;;;23.59;52.84;101073.78;5057419;28;45388;-67
2021/06/30 09:42:07;;;;;;;;;4.00;4.00;;;;;23.60;53.25;101073.75;5056804;28;45431;-71
2021/06/30 09:44:33;;;;;;;;;5.75;3.75;;;;;23.61;53.47;101074.63;5057566;28;45507;-69
2021/06/30 09:46:58;;;;;;;;;4.00;4.00;;;;;23.61;53.09;101074.63;5056941;28;45793;-69
2021/06/30 09:49:25;;;;;;;;;6.00;5.00;;;;;23.59;52.99;101073.78;5057180;28;45347;-69
2021/06/30 09:52:06;;;;;;;;;6.25;6.25;;;;;23.61;53.25;101079.94;5055238;28;45479;-68
2021/06/30 09:54:32;;;;;;;;;24.25;15.50;;;;;23.62;54.12;101079.91;5057229;28;45316;-66
2021/06/30 09:57:03;;;;;;;;;59.75;48.00;;;;;23.62;54.00;101079.91;5057003;28;47085;-68
2021/06/30 09:59:35;;;;;;;;;40.75;34.25;;;;;23.63;54.76;101086.06;5056907;28;45328;-67
2021/06/30 10:02:04;;;;;;;;;34.50;32.25;;;;;23.65;54.88;101081.63;5056352;28;45418;-65
2021/06/30 10:04:35;;;;;;;;;34.00;28.25;;;;;23.65;55.03;101087.78;5056736;28;45475;-65
2021/06/30 10:07:05;;;;;;;;;37.00;31.00;;;;;23.66;54.75;101084.22;5056245;28;45460;-65
2021/06/30 10:09:30;;;;;;;;;29.25;26.50;;;;;23.67;55.00;101088.63;5056880;28;45367;-65
2021/06/30 10:12:07;;;;;;;;;31.25;27.50;;;;;23.68;54.20;101085.03;5057097;28;45292;-66
2021/06/30 10:14:33;;;;;;;;;32.25;26.25;;;;;23.69;54.41;101091.25;5056719;28;45381;-66
2021/06/30 10:16:58;;;;;;;;;48.25;34.75;;;;;23.70;55.06;101085.03;5056116;28;45904;-69
2021/06/30 10:19:24;;;;;;;;;49.25;37.25;;;;;23.69;55.38;101092.09;5056286;28;45537;-77
2021/06/30 10:21:49;;;;;;;;;31.50;25.75;;;;;23.72;55.57;101093.81;5056841;28;45415;-70
2021/06/30 10:24:15;;;;;;;;;43.75;31.50;;;;;23.74;57.04;101096.44;5059328;28;45883;-72
2021/06/30 10:26:41;;;;;;;;;40.50;31.25;;;;;23.75;57.11;101088.41;5076778;27;45416;-70
2021/06/30 10:29:06;;;;;;;;;29.75;27.75;;;;;23.77;58.11;101097.22;5077088;27;45567;-69
2021/06/30 10:31:35;;;;;;;;;35.75;30.50;;;;;23.78;58.05;101091.03;5076622;27;51815;-67
2021/06/30 10:34:03;;;;;;;;;29.00;26.75;;;;;23.83;58.88;101090.91;5075289;28;45718;-72
2021/06/30 10:36:54;;;;;;;;;39.75;33.25;;;;;23.84;59.15;101090.00;5074984;28;46201;-74
2021/06/30 10:39:40;;;;;;;;;35.25;29.50;;;;;23.85;58.46;101083.75;5076803;27;45494;-69
2021/06/30 10:42:35;;;;;;;;;34.00;28.25;;;;;23.87;59.65;101082.81;5075580;27;45466;-76
2021/06/30 10:45:16;;;;;;;;;27.00;21.50;;;;;23.89;59.19;101077.47;5073376;27;45383;-70
2021/06/30 10:47:43;;;;;;;;;25.25;18.50;;;;;23.80;58.97;101062.66;5056178;28;46114;-67
2021/06/30 10:50:18;;;;;;;;;24.00;21.25;;;;;23.92;59.37;101079.19;5069452;28;45616;-72
2021/06/30 10:52:47;;;;;;;;;21.75;18.50;;;;;23.92;58.70;101077.44;5076875;27;45420;-76
2021/06/30 10:55:37;;;;;;;;;17.75;16.00;;;;;23.94;57.92;101080.03;5076900;27;45377;-66
2021/06/30 11:00:57;;;;;;;;;18.25;16.75;;;;;23.93;57.48;101080.94;5073047;28;45596;-69
2021/06/30 11:03:30;;;;;;;;;20.50;14.75;;;;;23.93;57.98;101087.09;5056125;27;45522;-67
2021/06/30 11:06:12;;;;;;;;;14.50;11.50;;;;;23.94;58.20;101086.22;5056540;28;45435;-74
2021/06/30 11:09:19;;;;;;;;;14.25;11.00;;;;;23.95;56.46;101095.06;5056173;28;45961;-74
2021/06/30 11:11:45;;;;;;;;;12.00;10.75;;;;;23.95;55.33;101089.75;5015362;28;45697;-69
2021/06/30 11:14:11;;;;;;;;;14.50;11.25;;;;;23.93;56.48;101094.22;5034034;28;45282;-66
2021/06/30 11:16:40;;;;;;;;;13.75;12.50;;;;;23.92;56.18;101092.47;5034188;28;45622;-65
2021/06/30 11:19:28;;;;;;;;;11.25;11.00;;;;;23.94;56.52;101094.16;5036971;28;46283;-66
2021/06/30 11:21:56;;;;;;;;;11.00;11.00;;;;;23.96;56.29;101094.13;5036611;28;45552;-65
2021/06/30 11:24:40;;;;;;;;;14.75;12.75;;;;;23.96;56.19;101092.38;5031125;28;45539;-65
2021/06/30 11:27:05;;;;;;;;;10.75;10.25;;;;;23.98;54.68;101094.97;5037327;28;45475;-66
2021/06/30 11:29:47;;;;;;;;;12.25;10.00;;;;;23.92;53.53;101096.00;5024918;28;46167;-66